createdAt,value
2023-04-27T00:01:52.977Z,68.39
2023-04-27T00:04:20.680Z,67.86
2023-04-27T00:06:48.785Z,68.26
2023-04-27T00:09:16.213Z,68.04
2023-04-27T00:11:44.433Z,68.09
2023-04-27T00:14:13.518Z,67.92
2023-04-27T00:16:41.376Z,68.74
2023-04-27T00:19:08.841Z,68.51
2023-04-27T00:21:36.515Z,68.18
2023-04-27T00:24:04.269Z,68.79
2023-04-27T00:26:32.066Z,68.63
2023-04-27T00:28:59.552Z,69.27
2023-04-27T00:31:28.861Z,68.94
2023-04-27T00:33:56.262Z,68.92
2023-04-27T00:36:23.990Z,69.84
2023-04-27T00:38:51.433Z,69.98
2023-04-27T00:41:19.433Z,70.08
2023-04-27T00:43:46.912Z,69.20
2023-04-27T00:46:15.599Z,69.90
2023-04-27T00:48:45.047Z,69.23
2023-04-27T00:51:13.230Z,68.79
2023-04-27T00:53:41.542Z,69.22
2023-04-27T00:56:09.349Z,68.93
2023-04-27T00:58:36.579Z,68.73
2023-04-27T01:01:04.815Z,68.21
2023-04-27T01:03:32.886Z,67.33
2023-04-27T01:06:02.256Z,68.49
2023-04-27T01:08:29.651Z,67.72
2023-04-27T01:10:57.773Z,67.84
2023-04-27T01:13:25.293Z,67.84
2023-04-27T01:15:53.068Z,66.45
2023-04-27T01:18:20.461Z,67.34
2023-04-27T01:20:48.148Z,67.65
2023-04-27T01:23:17.495Z,67.99
2023-04-27T01:25:45.500Z,68.65
2023-04-27T01:28:12.935Z,69.39
2023-04-27T01:30:40.656Z,69.42
2023-04-27T01:33:08.049Z,69.33
2023-04-27T01:35:35.717Z,69.51
2023-04-27T01:38:03.193Z,68.95
2023-04-27T01:40:32.203Z,69.17
2023-04-27T01:42:59.630Z,70.45
2023-04-27T01:45:27.385Z,70.33
2023-04-27T01:47:54.756Z,70.76
2023-04-27T01:50:22.705Z,70.20
2023-04-27T01:52:50.125Z,70.47
2023-04-27T01:55:17.949Z,70.35
2023-04-27T01:57:46.710Z,69.94
2023-04-27T02:00:14.883Z,69.28
2023-04-27T02:02:42.399Z,69.84
2023-04-27T02:05:10.196Z,69.39
2023-04-27T02:07:37.680Z,68.97
2023-04-27T02:10:07.021Z,68.28
2023-04-27T02:12:34.306Z,70.17
2023-04-27T02:15:03.822Z,70.43
2023-04-27T02:17:31.055Z,70.65
2023-04-27T02:19:58.704Z,71.44
2023-04-27T02:22:26.058Z,72.42
2023-04-27T02:24:54.139Z,72.44
2023-04-27T02:27:21.460Z,72.61
2023-04-27T02:29:49.591Z,72.61
2023-04-27T02:32:18.794Z,71.88
2023-04-27T02:34:46.462Z,71.36
2023-04-27T02:37:13.746Z,71.30
2023-04-27T02:39:41.441Z,71.53
2023-04-27T02:42:08.811Z,71.38
2023-04-27T02:44:36.584Z,70.86
2023-04-27T02:47:04.006Z,70.68
2023-04-27T02:49:33.180Z,70.78
2023-04-27T02:52:00.583Z,71.14
2023-04-27T02:54:28.578Z,71.00
2023-04-27T02:56:55.866Z,71.32
2023-04-27T02:59:23.703Z,71.21
2023-04-27T03:01:51.262Z,70.80
2023-04-27T03:04:19.224Z,70.12
2023-04-27T03:06:48.133Z,69.37
2023-04-27T03:09:16.111Z,68.71
2023-04-27T03:11:44.058Z,68.66
2023-04-27T03:14:11.812Z,69.07
2023-04-27T03:16:39.394Z,70.34
2023-04-27T03:19:07.323Z,71.01
2023-04-27T03:21:34.691Z,71.96
2023-04-27T03:24:04.618Z,72.37
2023-04-27T03:26:32.137Z,72.27
2023-04-27T03:29:00.314Z,71.72
2023-04-27T03:31:27.761Z,71.60
2023-04-27T03:33:55.557Z,71.97
2023-04-27T03:36:22.980Z,72.20
2023-04-27T03:38:50.694Z,72.29
2023-04-27T03:41:19.274Z,72.11
2023-04-27T03:43:47.154Z,72.19
2023-04-27T03:46:14.699Z,71.54
2023-04-27T03:48:42.328Z,71.39
2023-04-27T03:51:09.707Z,70.90
2023-04-27T03:53:37.544Z,71.01
2023-04-27T03:56:05.664Z,70.28
2023-04-27T03:58:34.985Z,70.76
2023-04-27T04:01:02.288Z,71.42
2023-04-27T04:03:30.230Z,71.75
2023-04-27T04:05:57.785Z,71.44
2023-04-27T04:08:25.505Z,71.46
2023-04-27T04:10:52.734Z,71.33
2023-04-27T04:13:20.675Z,71.43
2023-04-27T04:15:49.608Z,71.38
2023-04-27T04:18:17.496Z,71.70
2023-04-27T04:20:44.862Z,72.16
2023-04-27T04:23:12.846Z,72.52
2023-04-27T04:25:40.102Z,72.58
2023-04-27T04:28:07.916Z,73.07
2023-04-27T04:30:35.187Z,73.37
2023-04-27T04:33:04.338Z,73.42
2023-04-27T04:35:31.705Z,72.49
2023-04-27T04:37:59.458Z,72.34
2023-04-27T04:40:27.360Z,71.97
2023-04-27T04:42:55.106Z,72.11
2023-04-27T04:45:22.422Z,70.50
2023-04-27T04:47:50.274Z,70.68
2023-04-27T04:50:19.270Z,70.02
2023-04-27T04:52:47.338Z,71.10
2023-04-27T04:55:15.452Z,70.63
2023-04-27T04:57:43.124Z,71.37
2023-04-27T05:00:11.515Z,70.30
2023-04-27T05:02:39.706Z,70.02
2023-04-27T05:05:08.069Z,69.77
2023-04-27T05:07:37.255Z,70.17
2023-04-27T05:10:05.333Z,70.13
2023-04-27T05:12:32.964Z,70.37
2023-04-27T05:15:00.354Z,70.05
2023-04-27T05:17:28.524Z,70.35
2023-04-27T05:19:55.937Z,70.59
2023-04-27T05:22:23.698Z,70.71
2023-04-27T05:24:52.465Z,70.49
2023-04-27T05:27:20.257Z,70.07
2023-04-27T05:29:47.571Z,70.87
2023-04-27T05:32:15.375Z,70.20
2023-04-27T05:34:42.658Z,70.14
2023-04-27T05:37:10.489Z,69.65
2023-04-27T05:39:39.200Z,70.19
2023-04-27T05:42:08.456Z,69.23
2023-04-27T05:44:35.945Z,69.58
2023-04-27T05:47:03.703Z,69.31
2023-04-27T05:49:31.177Z,68.61
2023-04-27T05:51:58.981Z,68.10
2023-04-27T05:54:26.301Z,65.17
2023-04-27T05:56:54.142Z,63.95
2023-04-27T05:59:23.079Z,66.37
2023-04-27T06:01:50.932Z,65.28
2023-04-27T06:04:18.589Z,61.97
2023-04-27T06:06:46.554Z,63.64
2023-04-27T06:09:14.131Z,63.47
2023-04-27T06:11:42.006Z,61.18
2023-04-27T06:14:09.374Z,60.89
2023-04-27T06:16:38.613Z,62.92
2023-04-27T06:19:07.726Z,61.37
2023-04-27T06:21:36.052Z,59.67
2023-04-27T06:24:03.525Z,58.88
2023-04-27T06:26:31.189Z,59.68
2023-04-27T06:28:58.692Z,58.59
2023-04-27T06:31:26.866Z,59.03
2023-04-27T06:33:55.826Z,58.29
2023-04-27T06:36:26.290Z,58.06
2023-04-27T06:38:53.810Z,57.66
2023-04-27T06:41:21.629Z,56.56
2023-04-27T06:43:49.027Z,56.41
2023-04-27T06:46:16.813Z,55.73
2023-04-27T06:48:44.262Z,54.83
2023-04-27T06:51:13.632Z,55.66
2023-04-27T06:53:41.242Z,52.89
2023-04-27T06:56:11.909Z,54.52
2023-04-27T06:58:39.343Z,53.04
2023-04-27T07:01:07.042Z,53.26
2023-04-27T07:03:35.570Z,53.92
2023-04-27T07:06:03.736Z,55.08
2023-04-27T07:08:32.619Z,53.44
2023-04-27T07:11:00.512Z,53.44
2023-04-27T07:13:27.778Z,54.51
2023-04-27T07:15:56.211Z,53.15
2023-04-27T07:18:23.607Z,54.75
2023-04-27T07:20:51.521Z,55.96
2023-04-27T07:23:18.786Z,54.30
2023-04-27T07:25:48.050Z,54.23
2023-04-27T07:28:15.518Z,52.63
2023-04-27T07:30:43.379Z,51.76
2023-04-27T07:33:10.889Z,52.46
2023-04-27T07:35:39.135Z,50.92
2023-04-27T07:38:06.591Z,52.00
2023-04-27T07:40:34.450Z,51.17
2023-04-27T07:43:03.261Z,52.76
2023-04-27T07:45:31.007Z,52.00
2023-04-27T07:47:58.917Z,50.79
2023-04-27T07:50:27.023Z,49.13
2023-04-27T07:52:54.407Z,47.56
2023-04-27T07:55:22.549Z,47.19
2023-04-27T07:57:49.819Z,48.17
2023-04-27T08:00:19.796Z,48.48
2023-04-27T08:02:47.382Z,47.48
2023-04-27T08:05:16.021Z,47.03
2023-04-27T08:07:44.838Z,46.01
2023-04-27T08:10:13.232Z,45.29
2023-04-27T08:12:40.726Z,44.16
2023-04-27T08:15:11.434Z,44.80
2023-04-27T08:17:40.300Z,44.50
2023-04-27T08:20:09.147Z,45.30
2023-04-27T08:22:36.353Z,45.10
2023-04-27T08:25:04.759Z,43.91
2023-04-27T08:27:32.162Z,41.45
2023-04-27T08:30:00.331Z,44.17
2023-04-27T08:32:27.628Z,43.20
2023-04-27T08:34:56.758Z,45.04
2023-04-27T08:37:23.972Z,44.64
2023-04-27T08:39:51.611Z,44.67
2023-04-27T08:42:18.862Z,43.38
2023-04-27T08:44:46.663Z,41.67
2023-04-27T08:47:14.150Z,43.39
2023-04-27T08:49:41.880Z,45.18
2023-04-27T08:52:14.592Z,39.67
2023-04-27T08:54:42.581Z,40.55
2023-04-27T08:57:11.058Z,41.67
2023-04-27T08:59:39.196Z,43.08
2023-04-27T09:02:07.318Z,42.19
2023-04-27T09:04:38.636Z,43.95
2023-04-27T09:07:15.286Z,44.93
2023-04-27T09:09:43.551Z,47.11
2023-04-27T09:12:18.099Z,45.70
2023-04-27T09:14:56.918Z,42.94
2023-04-27T09:17:27.185Z,42.44
2023-04-27T09:20:07.026Z,41.15
2023-04-27T09:22:44.205Z,43.35
2023-04-27T09:25:22.884Z,45.87
2023-04-27T09:27:50.391Z,47.24
2023-04-27T09:30:18.833Z,47.00
2023-04-27T09:32:53.335Z,47.43
2023-04-27T09:35:23.719Z,46.96
2023-04-27T09:37:52.987Z,47.66
2023-04-27T09:40:22.083Z,49.02
2023-04-27T09:42:50.077Z,48.03
2023-04-27T09:45:18.438Z,46.66
2023-04-27T09:47:46.330Z,48.38
2023-04-27T09:50:14.799Z,45.33
2023-04-27T09:52:42.527Z,46.54
2023-04-27T09:55:16.298Z,45.63
2023-04-27T09:57:53.828Z,45.83
2023-04-27T10:00:35.175Z,44.32
2023-04-27T10:03:15.257Z,44.93
2023-04-27T10:06:17.954Z,46.20
2023-04-27T10:08:45.534Z,44.87
2023-04-27T10:11:18.079Z,44.05
2023-04-27T10:13:52.436Z,46.00
2023-04-27T10:16:22.490Z,42.96
2023-04-27T10:18:54.678Z,43.77
2023-04-27T10:21:23.081Z,43.93
2023-04-27T10:23:51.613Z,42.35
2023-04-27T10:26:25.923Z,40.53
2023-04-27T10:29:05.390Z,39.29
2023-04-27T10:31:33.471Z,39.70
2023-04-27T10:34:08.838Z,39.75
2023-04-27T10:36:37.592Z,41.49
2023-04-27T10:39:15.206Z,42.32
2023-04-27T10:41:50.708Z,42.06
2023-04-27T10:44:18.372Z,40.11
2023-04-27T10:46:53.282Z,42.79
2023-04-27T10:49:21.413Z,43.64
2023-04-27T10:51:51.528Z,44.04
2023-04-27T10:54:19.064Z,45.32
2023-04-27T10:56:46.879Z,37.82
2023-04-27T10:59:15.736Z,38.95
2023-04-27T11:01:48.190Z,41.16
2023-04-27T11:04:15.620Z,41.12
2023-04-27T11:06:44.838Z,40.36
2023-04-27T11:09:12.250Z,39.63
2023-04-27T11:11:44.526Z,40.96
2023-04-27T11:14:19.768Z,36.06
2023-04-27T11:16:47.900Z,39.40
2023-04-27T11:19:15.740Z,38.92
2023-04-27T11:21:44.333Z,41.60
2023-04-27T11:24:13.867Z,41.10
2023-04-27T11:26:42.973Z,40.50
2023-04-27T11:29:10.902Z,41.80
2023-04-27T11:31:41.802Z,41.81
2023-04-27T11:34:09.569Z,42.73
2023-04-27T11:36:37.516Z,43.51
2023-04-27T11:39:05.063Z,42.20
2023-04-27T11:41:36.832Z,43.61
2023-04-27T11:44:05.896Z,44.31
2023-04-27T11:46:34.763Z,46.46
2023-04-27T11:49:04.730Z,43.94
2023-04-27T11:51:33.498Z,43.85
2023-04-27T11:54:04.693Z,46.13
2023-04-27T11:56:36.284Z,45.63
2023-04-27T11:59:03.993Z,42.86
2023-04-27T12:01:38.030Z,41.92
2023-04-27T12:04:07.398Z,42.99
2023-04-27T12:06:35.482Z,41.78
2023-04-27T12:09:02.914Z,39.79
2023-04-27T12:11:30.786Z,40.14
2023-04-27T12:13:58.142Z,42.78
2023-04-27T12:16:25.960Z,41.03
2023-04-27T12:18:53.350Z,40.11
2023-04-27T12:21:22.634Z,39.75
2023-04-27T12:23:50.056Z,38.95
2023-04-27T12:26:18.040Z,40.56
2023-04-27T12:28:45.302Z,38.68
2023-04-27T12:31:15.748Z,39.67
2023-04-27T12:33:45.809Z,39.52
2023-04-27T12:36:13.562Z,39.63
2023-04-27T12:38:42.305Z,36.55
2023-04-27T12:41:10.034Z,38.46
2023-04-27T12:43:37.506Z,38.44
2023-04-27T12:46:05.308Z,35.10
2023-04-27T12:48:32.735Z,37.37
2023-04-27T12:51:00.433Z,36.37
2023-04-27T12:53:28.459Z,37.57
2023-04-27T12:55:57.633Z,38.82
2023-04-27T12:58:24.965Z,35.32
2023-04-27T13:00:52.634Z,36.14
2023-04-27T13:03:20.238Z,37.15
2023-04-27T13:05:48.092Z,37.84
2023-04-27T13:08:15.582Z,38.56
2023-04-27T13:10:43.390Z,37.88
2023-04-27T13:13:12.229Z,37.30
2023-04-27T13:15:39.933Z,40.94
2023-04-27T13:18:07.524Z,42.26
2023-04-27T13:20:35.342Z,41.27
2023-04-27T13:23:04.238Z,45.23
2023-04-27T13:25:31.948Z,45.23
2023-04-27T13:27:59.318Z,45.75
2023-04-27T13:30:28.784Z,44.63
2023-04-27T13:33:01.924Z,44.87
2023-04-27T13:35:38.475Z,42.94
2023-04-27T13:38:06.040Z,43.53
2023-04-27T13:40:34.195Z,42.03
2023-04-27T13:43:01.694Z,39.65
2023-04-27T13:45:30.789Z,38.92
2023-04-27T13:47:58.267Z,39.44
2023-04-27T13:50:26.080Z,39.67
2023-04-27T13:52:53.566Z,42.07
2023-04-27T13:55:21.437Z,40.20
2023-04-27T13:57:48.925Z,39.72
2023-04-27T14:00:17.236Z,38.66
2023-04-27T14:02:46.174Z,38.59
2023-04-27T14:05:13.934Z,37.65
2023-04-27T14:07:41.474Z,36.92
2023-04-27T14:10:09.830Z,39.26
2023-04-27T14:12:37.334Z,38.56
2023-04-27T14:15:05.869Z,36.53
2023-04-27T14:17:33.311Z,35.66
2023-04-27T14:20:02.677Z,36.08
2023-04-27T14:22:30.379Z,36.51
2023-04-27T14:24:58.277Z,34.70
2023-04-27T14:27:25.916Z,36.40
2023-04-27T14:29:53.678Z,34.90
2023-04-27T14:32:21.322Z,35.24
2023-04-27T14:34:49.272Z,36.22
2023-04-27T14:37:17.962Z,38.32
2023-04-27T14:39:46.284Z,38.75
2023-04-27T14:42:13.724Z,38.83
2023-04-27T14:44:41.531Z,38.85
2023-04-27T14:47:08.932Z,37.42
2023-04-27T14:49:36.661Z,38.14
2023-04-27T14:52:03.968Z,38.91
2023-04-27T14:54:33.266Z,37.77
2023-04-27T14:57:00.645Z,37.62
2023-04-27T14:59:28.699Z,38.82
2023-04-27T15:01:56.069Z,37.96
2023-04-27T15:04:24.146Z,38.73
2023-04-27T15:06:51.637Z,38.38
2023-04-27T15:09:19.557Z,37.19
2023-04-27T15:11:48.342Z,37.02
2023-04-27T15:14:16.235Z,37.43
2023-04-27T15:16:43.607Z,38.39
2023-04-27T15:19:11.674Z,37.77
2023-04-27T15:21:38.940Z,37.46
2023-04-27T15:24:06.859Z,36.45
2023-04-27T15:26:34.354Z,37.65
2023-04-27T15:29:04.204Z,37.57
2023-04-27T15:31:31.772Z,38.15
2023-04-27T15:33:59.436Z,38.21
2023-04-27T15:36:26.820Z,37.30
2023-04-27T15:38:54.837Z,38.29
2023-04-27T15:41:22.254Z,38.13
2023-04-27T15:43:51.438Z,37.24
2023-04-27T15:46:20.188Z,38.15
2023-04-27T15:48:48.036Z,39.29
2023-04-27T15:51:15.309Z,38.80
2023-04-27T15:53:43.037Z,40.73
2023-04-27T15:56:10.534Z,41.99
2023-04-27T15:58:38.178Z,41.42
2023-04-27T16:01:05.613Z,41.58
2023-04-27T16:03:35.023Z,40.61
2023-04-27T16:06:02.608Z,41.59
2023-04-27T16:08:30.376Z,41.34
2023-04-27T16:10:57.651Z,41.53
2023-04-27T16:13:25.502Z,41.77
2023-04-27T16:15:52.934Z,43.17
2023-04-27T16:18:20.577Z,40.71
2023-04-27T16:20:49.382Z,41.44
2023-04-27T16:23:17.185Z,42.07
2023-04-27T16:25:44.558Z,40.96
2023-04-27T16:28:12.322Z,42.01
2023-04-27T16:30:39.756Z,40.58
2023-04-27T16:33:07.594Z,40.84
2023-04-27T16:35:35.174Z,40.35
2023-04-27T16:38:04.298Z,40.14
2023-04-27T16:40:31.576Z,40.28
2023-04-27T16:42:59.340Z,43.01
2023-04-27T16:45:26.721Z,42.44
2023-04-27T16:47:54.423Z,41.22
2023-04-27T16:50:21.965Z,41.47
2023-04-27T16:52:49.862Z,41.26
2023-04-27T16:55:18.748Z,40.65
2023-04-27T16:57:46.483Z,41.83
2023-04-27T17:00:14.867Z,39.53
2023-04-27T17:02:43.965Z,38.45
2023-04-27T17:05:11.936Z,41.05
2023-04-27T17:07:39.722Z,38.97
2023-04-27T17:10:08.452Z,40.41
2023-04-27T17:12:38.113Z,38.86
2023-04-27T17:15:07.012Z,39.00
2023-04-27T17:17:35.306Z,38.29
2023-04-27T17:20:02.612Z,37.91
2023-04-27T17:22:30.299Z,38.79
2023-04-27T17:24:57.624Z,40.38
2023-04-27T17:27:25.339Z,40.79
2023-04-27T17:29:54.859Z,41.60
2023-04-27T17:32:22.697Z,41.93
2023-04-27T17:34:50.064Z,41.83
2023-04-27T17:37:17.683Z,42.35
2023-04-27T17:39:44.989Z,42.94
2023-04-27T17:42:12.857Z,43.18
2023-04-27T17:44:40.485Z,44.03
2023-04-27T17:47:09.806Z,44.64
2023-04-27T17:49:37.166Z,45.39
2023-04-27T17:52:05.436Z,44.70
2023-04-27T17:54:32.836Z,44.50
2023-04-27T17:57:00.545Z,44.70
2023-04-27T17:59:27.878Z,44.71
2023-04-27T18:01:55.768Z,44.97
2023-04-27T18:04:24.689Z,44.75
2023-04-27T18:06:52.551Z,45.22
2023-04-27T18:09:19.918Z,46.57
2023-04-27T18:11:47.834Z,46.92
2023-04-27T18:14:15.277Z,47.24
2023-04-27T18:16:42.993Z,46.90
2023-04-27T18:19:10.334Z,46.65
2023-04-27T18:21:39.440Z,47.10
2023-04-27T18:24:07.607Z,47.71
2023-04-27T18:26:35.554Z,48.14
2023-04-27T18:29:03.033Z,48.92
2023-04-27T18:31:30.754Z,49.38
2023-04-27T18:33:59.175Z,50.37
2023-04-27T18:36:26.903Z,51.43
2023-04-27T18:38:55.843Z,51.05
2023-04-27T18:41:23.569Z,51.80
2023-04-27T18:43:50.982Z,52.94
2023-04-27T18:46:18.771Z,56.66
2023-04-27T18:48:46.219Z,56.76
2023-04-27T18:51:13.924Z,57.19
2023-04-27T18:53:41.374Z,56.99
2023-04-27T18:56:10.697Z,56.25
2023-04-27T18:58:38.091Z,57.19
2023-04-27T19:01:06.001Z,57.93
2023-04-27T19:03:33.645Z,58.55
2023-04-27T19:06:01.646Z,58.30
2023-04-27T19:08:29.129Z,57.61
2023-04-27T19:10:58.456Z,57.71
2023-04-27T19:13:27.492Z,58.53
2023-04-27T19:15:55.138Z,58.62
2023-04-27T19:18:22.593Z,60.43
2023-04-27T19:20:50.517Z,60.78
2023-04-27T19:23:18.033Z,60.05
2023-04-27T19:25:45.923Z,59.58
2023-04-27T19:28:13.661Z,59.24
2023-04-27T19:30:42.976Z,58.76
2023-04-27T19:33:10.487Z,58.97
2023-04-27T19:35:38.257Z,58.97
2023-04-27T19:38:05.701Z,59.74
2023-04-27T19:40:33.434Z,59.95
2023-04-27T19:43:00.906Z,60.54
2023-04-27T19:45:28.674Z,60.16
2023-04-27T19:47:57.733Z,60.31
2023-04-27T19:50:25.560Z,61.16
2023-04-27T19:52:53.137Z,60.96
2023-04-27T19:55:21.081Z,60.60
2023-04-27T19:57:48.472Z,60.39
2023-04-27T20:00:16.725Z,59.56
2023-04-27T20:02:44.395Z,59.19
2023-04-27T20:05:14.000Z,59.00
2023-04-27T20:07:41.510Z,58.97
2023-04-27T20:10:09.397Z,59.06
2023-04-27T20:12:52.054Z,58.52
2023-04-27T20:15:23.951Z,59.03
2023-04-27T20:17:51.399Z,59.95
2023-04-27T20:20:20.749Z,59.84
2023-04-27T20:22:48.190Z,59.43
2023-04-27T20:25:15.984Z,59.29
2023-04-27T20:27:43.364Z,59.35
2023-04-27T20:30:11.883Z,59.28
2023-04-27T20:32:39.322Z,59.24
2023-04-27T20:35:07.662Z,59.48
2023-04-27T20:37:36.467Z,59.70
2023-04-27T20:40:04.792Z,59.85
2023-04-27T20:42:32.340Z,59.51
2023-04-27T20:45:00.232Z,60.11
2023-04-27T20:47:27.655Z,60.00
2023-04-27T20:49:55.351Z,60.00
2023-04-27T20:52:22.729Z,60.56
2023-04-27T20:54:51.859Z,60.29
2023-04-27T20:57:19.302Z,60.66
2023-04-27T20:59:47.118Z,64.43
2023-04-27T21:02:14.525Z,66.61
2023-04-27T21:04:42.557Z,68.40
2023-04-27T21:07:10.182Z,69.15
2023-04-27T21:09:37.940Z,64.36
2023-04-27T21:12:06.894Z,64.08
2023-04-27T21:14:34.729Z,67.58
2023-04-27T21:17:02.152Z,67.60
2023-04-27T21:19:29.840Z,69.31
2023-04-27T21:21:57.353Z,65.39
2023-04-27T21:24:25.212Z,63.54
2023-04-27T21:26:52.797Z,64.91
2023-04-27T21:29:21.989Z,66.85
2023-04-27T21:31:49.306Z,70.75
2023-04-27T21:34:17.245Z,67.35
2023-04-27T21:36:44.790Z,65.27
2023-04-27T21:39:12.623Z,64.05
2023-04-27T21:41:39.939Z,63.86
2023-04-27T21:44:07.560Z,64.14
2023-04-27T21:46:36.657Z,63.85
2023-04-27T21:49:04.538Z,64.08
2023-04-27T21:51:31.889Z,64.26
2023-04-27T21:53:59.643Z,64.21
2023-04-27T21:56:26.902Z,63.45
2023-04-27T21:58:54.773Z,64.52
2023-04-27T22:01:22.292Z,64.86
2023-04-27T22:03:51.537Z,64.20
2023-04-27T22:06:18.983Z,64.40
2023-04-27T22:08:46.871Z,65.38
2023-04-27T22:11:14.243Z,66.71
2023-04-27T22:13:42.039Z,66.84
2023-04-27T22:16:10.226Z,65.89
2023-04-27T22:18:39.446Z,68.90
2023-04-27T22:21:08.252Z,68.01
2023-04-27T22:23:36.374Z,66.66
2023-04-27T22:26:03.951Z,66.45
2023-04-27T22:28:31.676Z,65.59
2023-04-27T22:31:00.180Z,65.90
2023-04-27T22:33:28.020Z,67.14
2023-04-27T22:35:55.291Z,68.34
2023-04-27T22:38:24.597Z,68.16
2023-04-27T22:40:51.818Z,67.80
2023-04-27T22:43:19.573Z,68.17
2023-04-27T22:45:46.943Z,67.42
2023-04-27T22:48:14.660Z,67.99
2023-04-27T22:50:42.063Z,74.75
2023-04-27T22:53:09.715Z,70.30
2023-04-27T22:55:38.524Z,70.18
2023-04-27T22:58:06.341Z,70.35
2023-04-27T23:00:33.765Z,69.87
2023-04-27T23:03:01.664Z,70.60
2023-04-27T23:05:29.227Z,72.59
2023-04-27T23:07:56.886Z,71.88
2023-04-27T23:10:24.455Z,70.94
2023-04-27T23:12:53.527Z,71.52
2023-04-27T23:15:20.971Z,70.59
2023-04-27T23:17:48.733Z,70.49
2023-04-27T23:20:27.221Z,69.66
2023-04-27T23:22:55.712Z,69.83
2023-04-27T23:25:23.179Z,72.37
2023-04-27T23:27:52.530Z,75.09
2023-04-27T23:30:22.278Z,73.44
2023-04-27T23:32:50.044Z,71.26
2023-04-27T23:35:17.832Z,70.52
2023-04-27T23:37:45.553Z,71.30
2023-04-27T23:40:12.972Z,71.26
2023-04-27T23:42:40.698Z,71.96
2023-04-27T23:45:08.789Z,71.71
2023-04-27T23:47:37.918Z,72.08
2023-04-27T23:50:06.290Z,71.99
2023-04-27T23:52:33.988Z,72.36
2023-04-27T23:55:01.328Z,72.07
2023-04-27T23:57:29.045Z,71.51
2023-04-27T23:59:56.309Z,71.94
